Time;durP1;ratioP1;P1;durP2;ratioP2;P2;SDS_P1;SDS_P2;PMS_P1;PMS_P2;Temp;Humidity;BMP_temperature;BMP_pressure;BME280_temperature;BME280_humidity;BME280_pressure;Samples;Min_cycle;Max_cycle;Signal;HPM_P1;HPM_P2
2022/10/31 00:00:57;;;;;;;10.23;9.73;;;;;;;-143.83;100.00;62900.06;5088056;28;20041;-66
2022/10/31 00:03:23;;;;;;;10.48;9.98;;;;;;;-143.83;100.00;62900.06;5079979;28;20169;-66
2022/10/31 00:05:49;;;;;;;11.60;11.00;;;;;;;-143.83;100.00;62900.06;5087938;28;20115;-66
2022/10/31 00:08:16;;;;;;;10.20;9.70;;;;;;;-143.83;100.00;62900.06;5085372;28;20024;-66
2022/10/31 00:10:43;;;;;;;11.00;10.40;;;;;;;-143.83;100.00;62900.06;5089418;28;20020;-66
2022/10/31 00:13:10;;;;;;;10.43;9.93;;;;;;;-143.83;100.00;62900.06;5085708;28;20484;-67
2022/10/31 00:15:37;;;;;;;10.15;9.65;;;;;;;-143.83;100.00;62900.06;5081604;28;20028;-67
2022/10/31 00:18:03;;;;;;;10.48;9.98;;;;;;;-143.83;100.00;62900.06;5090906;28;20058;-66
2022/10/31 00:20:29;;;;;;;10.10;9.60;;;;;;;-143.83;100.00;62900.06;5088859;28;20024;-66
2022/10/31 00:22:58;;;;;;;10.35;9.85;;;;;;;-143.83;100.00;62900.06;5086167;28;20050;-66
2022/10/31 00:25:23;;;;;;;10.10;9.60;;;;;;;-143.83;100.00;62900.06;5087763;28;20028;-66
2022/10/31 00:27:48;;;;;;;11.02;10.43;;;;;;;-143.83;100.00;62900.06;5079151;28;20032;-66
2022/10/31 00:30:14;;;;;;;9.60;9.20;;;;;;;-143.83;100.00;62900.06;5085769;28;20411;-67
2022/10/31 00:32:39;;;;;;;10.82;10.30;;;;;;;-143.83;100.00;62900.06;5083661;28;20392;-67
2022/10/31 00:35:05;;;;;;;10.18;9.68;;;;;;;-143.83;100.00;62900.06;5082339;28;20040;-67
2022/10/31 00:37:31;;;;;;;11.38;10.77;;;;;;;-143.83;100.00;62900.06;5086942;28;20028;-67
2022/10/31 00:39:56;;;;;;;10.35;9.85;;;;;;;-143.83;100.00;62900.06;5084425;28;20519;-66
2022/10/31 00:42:22;;;;;;;9.88;9.38;;;;;;;-143.83;100.00;62900.06;5084401;28;20031;-65
2022/10/31 00:44:47;;;;;;;10.05;9.55;;;;;;;-143.83;100.00;62900.06;5084254;28;20033;-66
2022/10/31 00:47:13;;;;;;;9.80;9.30;;;;;;;-143.83;100.00;62900.06;5079315;28;20434;-66
2022/10/31 00:49:38;;;;;;;9.65;9.20;;;;;;;-143.83;100.00;62900.06;5085334;28;20021;-65
2022/10/31 00:52:04;;;;;;;10.20;9.70;;;;;;;-143.83;100.00;62900.06;5084234;28;20070;-67
2022/10/31 00:54:30;;;;;;;10.63;10.13;;;;;;;-143.83;100.00;62900.06;5080578;28;20024;-66
2022/10/31 00:56:56;;;;;;;10.10;9.60;;;;;;;-143.83;100.00;62900.06;5089655;28;20085;-67
2022/10/31 00:59:22;;;;;;;10.15;9.65;;;;;;;-143.83;100.00;62900.06;5086432;28;20376;-66
2022/10/31 01:01:47;;;;;;;10.30;9.80;;;;;;;-143.83;100.00;62900.06;5083037;28;20039;-65
2022/10/31 01:04:13;;;;;;;10.00;9.50;;;;;;;-143.83;100.00;62900.06;5076236;28;20036;-66
2022/10/31 01:06:38;;;;;;;10.43;9.93;;;;;;;-143.83;100.00;62900.06;5084056;28;20111;-67
2022/10/31 01:09:04;;;;;;;10.60;10.10;;;;;;;-143.83;100.00;62900.06;5092519;28;20016;-65
2022/10/31 01:11:29;;;;;;;10.18;9.68;;;;;;;-143.83;100.00;62900.06;5088132;28;20023;-67
2022/10/31 01:13:55;;;;;;;10.18;9.68;;;;;;;-143.83;100.00;62900.06;5084939;28;20387;-66
2022/10/31 01:16:23;;;;;;;9.95;9.45;;;;;;;-143.83;100.00;62900.06;5080254;28;20032;-66
2022/10/31 01:18:49;;;;;;;9.85;9.35;;;;;;;-143.83;100.00;62900.06;5080340;28;20024;-66
2022/10/31 01:21:17;;;;;;;9.93;9.43;;;;;;;-143.83;100.00;62900.06;5090757;28;20036;-66
2022/10/31 01:23:43;;;;;;;10.40;9.90;;;;;;;-143.83;100.00;62900.06;5082072;28;20043;-66
2022/10/31 01:26:18;;;;;;;10.52;10.02;;;;;;;-143.83;100.00;62900.06;5086900;28;20033;-67
2022/10/31 01:28:48;;;;;;;11.45;10.85;;;;;;;-143.83;100.00;62900.06;5086420;28;20028;-66
2022/10/31 01:31:15;;;;;;;10.85;10.25;;;;;;;-143.83;100.00;62900.06;5082157;28;20050;-65
2022/10/31 01:33:42;;;;;;;10.10;9.60;;;;;;;-143.83;100.00;62900.06;5077736;28;20024;-66
2022/10/31 01:36:24;;;;;;;10.40;9.90;;;;;;;-143.83;100.00;62900.06;5085977;28;20024;-66
2022/10/31 01:38:52;;;;;;;10.50;10.00;;;;;;;-143.83;100.00;62900.06;5078928;28;20020;-66
2022/10/31 01:41:23;;;;;;;10.48;9.98;;;;;;;-143.83;100.00;62900.06;5083718;28;20020;-66
2022/10/31 01:44:00;;;;;;;9.93;9.43;;;;;;;-143.83;100.00;62900.06;5079724;28;20450;-67
2022/10/31 01:46:32;;;;;;;10.68;10.15;;;;;;;-143.83;100.00;62900.06;5079669;28;20024;-66
2022/10/31 01:49:03;;;;;;;10.00;9.50;;;;;;;-143.83;100.00;62900.06;5074460;28;20020;-67
2022/10/31 01:51:34;;;;;;;10.18;9.68;;;;;;;-143.83;100.00;62900.06;5080909;28;20031;-66
2022/10/31 01:54:04;;;;;;;10.35;9.85;;;;;;;-143.83;100.00;62900.06;5089354;28;20032;-66
2022/10/31 01:56:31;;;;;;;10.48;9.98;;;;;;;-143.83;100.00;62900.06;5079152;28;20021;-66
2022/10/31 01:58:59;;;;;;;10.50;10.00;;;;;;;-143.83;100.00;62900.06;5087423;28;20035;-66
2022/10/31 02:01:25;;;;;;;10.25;9.75;;;;;;;-143.83;100.00;62900.06;5083733;28;20111;-66
2022/10/31 02:03:51;;;;;;;11.10;10.50;;;;;;;-143.83;100.00;62900.06;5078711;28;20031;-68
2022/10/31 02:06:35;;;;;;;10.20;9.70;;;;;;;-143.83;100.00;62900.06;5080905;28;20024;-66
2022/10/31 02:09:03;;;;;;;10.85;10.25;;;;;;;-143.83;100.00;62900.06;5080083;28;20028;-67
2022/10/31 02:11:29;;;;;;;10.93;10.32;;;;;;;-143.83;100.00;62900.06;5080251;28;20033;-67
2022/10/31 02:13:55;;;;;;;10.82;10.27;;;;;;;-143.83;100.00;62900.06;5085549;28;20052;-67
2022/10/31 02:16:20;;;;;;;10.43;9.93;;;;;;;-143.83;100.00;62900.06;5080858;28;20082;-67
2022/10/31 02:18:46;;;;;;;9.98;9.48;;;;;;;-143.83;100.00;62900.06;5072916;28;20029;-67
2022/10/31 02:21:14;;;;;;;10.00;9.50;;;;;;;-143.83;100.00;62900.06;5082019;28;20031;-67
2022/10/31 02:23:52;;;;;;;10.00;9.50;;;;;;;-143.83;100.00;62900.06;5083927;28;20055;-67
2022/10/31 02:26:45;;;;;;;10.18;9.68;;;;;;;-143.83;100.00;62900.06;5080163;28;20024;-67
2022/10/31 02:29:39;;;;;;;10.60;10.10;;;;;;;-143.83;100.00;62900.06;5077574;28;20044;-67
2022/10/31 02:32:32;;;;;;;10.82;10.25;;;;;;;-143.83;100.00;62900.06;5075619;28;20024;-66
2022/10/31 02:35:14;;;;;;;11.43;10.82;;;;;;;-143.83;100.00;62900.06;5102978;28;20064;-67
2022/10/31 02:37:55;;;;;;;10.63;10.07;;;;;;;-143.83;100.00;62900.06;5082611;28;20491;-67
2022/10/31 02:40:50;;;;;;;10.70;10.20;;;;;;;-143.83;100.00;62900.06;5085163;28;20507;-67
2022/10/31 02:43:46;;;;;;;9.68;9.18;;;;;;;-143.83;100.00;62900.06;5073856;28;20454;-67
2022/10/31 02:46:23;;;;;;;10.40;9.90;;;;;;;-143.83;100.00;62900.06;5082827;28;20043;-67
2022/10/31 02:48:53;;;;;;;10.15;9.65;;;;;;;-143.83;100.00;62900.06;5077210;28;20024;-66
2022/10/31 02:51:22;;;;;;;10.60;10.10;;;;;;;-143.83;100.00;62900.06;5077780;28;20122;-67
2022/10/31 02:53:47;;;;;;;10.50;10.00;;;;;;;-143.83;100.00;62900.06;5078706;28;20051;-67
2022/10/31 02:56:18;;;;;;;9.98;9.48;;;;;;;-143.83;100.00;62900.06;5081275;28;20062;-66
2022/10/31 02:58:54;;;;;;;10.40;9.90;;;;;;;-143.83;100.00;62900.06;5081607;28;20055;-66
2022/10/31 03:01:39;;;;;;;10.10;9.60;;;;;;;-143.83;100.00;62900.06;5088305;28;20103;-66
2022/10/31 03:04:45;;;;;;;10.75;10.25;;;;;;;-143.83;100.00;62900.06;5084668;28;20487;-66
2022/10/31 03:07:28;;;;;;;11.05;10.45;;;;;;;-143.83;100.00;62900.06;5082336;28;20036;-66
2022/10/31 03:10:10;;;;;;;10.70;10.20;;;;;;;-143.83;100.00;62900.06;5091942;28;20053;-66
2022/10/31 03:12:50;;;;;;;10.10;9.60;;;;;;;-143.83;100.00;62900.06;5087109;28;20106;-66
2022/10/31 03:15:28;;;;;;;10.10;9.60;;;;;;;-143.83;100.00;62900.06;5088933;28;20036;-67
2022/10/31 03:18:22;;;;;;;10.90;10.30;;;;;;;-143.83;100.00;62900.06;5086020;28;20107;-66
2022/10/31 03:20:55;;;;;;;10.40;9.90;;;;;;;-143.83;100.00;62900.06;5082910;28;20035;-66
2022/10/31 03:23:24;;;;;;;9.80;9.35;;;;;;;-143.83;100.00;62900.06;5088006;28;20038;-67
2022/10/31 03:25:53;;;;;;;10.15;9.65;;;;;;;-143.83;100.00;62900.06;5094775;28;20490;-66
2022/10/31 03:28:27;;;;;;;9.88;9.38;;;;;;;-143.83;100.00;62900.06;5087696;28;20036;-67
2022/10/31 03:30:54;;;;;;;11.35;10.75;;;;;;;-143.83;100.00;62900.06;5089212;28;20047;-67
2022/10/31 03:33:27;;;;;;;9.93;9.43;;;;;;;-143.83;100.00;62900.06;5084470;28;20024;-67
2022/10/31 03:35:57;;;;;;;10.45;9.95;;;;;;;-143.83;100.00;62900.06;5084967;28;20016;-67
2022/10/31 03:38:22;;;;;;;10.30;9.80;;;;;;;-143.83;100.00;62900.06;5085401;28;20454;-68
2022/10/31 03:40:51;;;;;;;10.50;10.00;;;;;;;-143.83;100.00;62900.06;5080823;28;20115;-67
2022/10/31 03:43:24;;;;;;;10.00;9.50;;;;;;;-143.83;100.00;62900.06;5083829;28;20024;-66
2022/10/31 03:45:49;;;;;;;10.30;9.80;;;;;;;-143.83;100.00;62900.06;5079386;28;20020;-66
2022/10/31 03:48:18;;;;;;;10.20;9.70;;;;;;;-143.83;100.00;62900.06;5084103;28;20020;-66
2022/10/31 03:50:49;;;;;;;11.05;10.45;;;;;;;-143.83;100.00;62900.06;5089971;28;20056;-66
2022/10/31 03:53:22;;;;;;;10.48;9.98;;;;;;;-143.83;100.00;62900.06;5085018;28;20080;-67
2022/10/31 03:56:34;;;;;;;10.15;9.65;;;;;;;-143.83;100.00;62900.06;5084864;28;20031;-66
2022/10/31 03:59:13;;;;;;;10.25;9.75;;;;;;;-143.83;100.00;62900.06;5081535;28;20084;-66
2022/10/31 04:01:44;;;;;;;10.40;9.90;;;;;;;-143.83;100.00;62900.06;5083770;28;20021;-66
2022/10/31 04:04:10;;;;;;;10.10;9.60;;;;;;;-143.83;100.00;62900.06;5077144;28;20108;-66
2022/10/31 04:06:40;;;;;;;10.65;10.15;;;;;;;-143.83;100.00;62900.06;5082449;28;20024;-66
2022/10/31 04:09:09;;;;;;;10.55;10.05;;;;;;;-143.83;100.00;62900.06;5084369;28;20040;-67
2022/10/31 04:11:39;;;;;;;10.13;9.63;;;;;;;-143.83;100.00;62900.06;5090747;28;20028;-67
2022/10/31 04:14:06;;;;;;;10.75;10.18;;;;;;;-143.83;100.00;62900.06;5085330;28;20031;-67
2022/10/31 04:16:31;;;;;;;10.50;10.00;;;;;;;-143.83;100.00;62900.06;5086323;28;20103;-67
2022/10/31 04:18:57;;;;;;;10.55;10.05;;;;;;;-143.83;100.00;62900.06;5084960;28;20396;-68
2022/10/31 04:21:29;;;;;;;10.68;10.13;;;;;;;-143.83;100.00;62900.06;5083487;28;20037;-67
2022/10/31 04:23:55;;;;;;;10.40;9.90;;;;;;;-143.83;100.00;62900.06;5085558;28;20032;-67
2022/10/31 04:26:21;;;;;;;10.00;9.50;;;;;;;-143.83;100.00;62900.06;5085417;28;20081;-67
2022/10/31 04:28:46;;;;;;;9.90;9.40;;;;;;;-143.83;100.00;62900.06;5084707;28;20020;-67
2022/10/31 04:31:12;;;;;;;9.88;9.38;;;;;;;-143.83;100.00;62900.06;5089783;28;20314;-67
2022/10/31 04:33:38;;;;;;;10.38;9.88;;;;;;;-143.83;100.00;62900.06;5081117;28;20097;-67
2022/10/31 04:36:05;;;;;;;11.43;10.82;;;;;;;-143.83;100.00;62900.06;5085669;28;20032;-67
2022/10/31 04:38:30;;;;;;;10.05;9.55;;;;;;;-143.83;100.00;62900.06;5083902;28;20020;-67
2022/10/31 04:40:56;;;;;;;10.70;10.20;;;;;;;-143.83;100.00;62900.06;5084806;28;20020;-67
2022/10/31 04:43:22;;;;;;;10.30;9.80;;;;;;;-143.83;100.00;62900.06;5082523;28;20494;-66
2022/10/31 04:45:48;;;;;;;11.35;10.75;;;;;;;-143.83;100.00;62900.06;5085817;28;20096;-67
2022/10/31 04:48:13;;;;;;;10.23;9.73;;;;;;;-143.83;100.00;62900.06;5078160;28;20067;-66
2022/10/31 04:50:39;;;;;;;10.35;9.85;;;;;;;-143.83;100.00;62900.06;5083220;28;20097;-67
2022/10/31 04:53:04;;;;;;;10.32;9.82;;;;;;;-143.83;100.00;62900.06;5077888;28;20051;-66
2022/10/31 04:55:30;;;;;;;10.25;9.75;;;;;;;-143.83;100.00;62900.06;5080642;28;20027;-65
2022/10/31 04:57:55;;;;;;;11.13;10.52;;;;;;;-143.83;100.00;62900.06;5085985;28;20483;-67
2022/10/31 05:00:22;;;;;;;10.45;9.95;;;;;;;-143.83;100.00;62900.06;5086375;28;20035;-66
2022/10/31 05:02:49;;;;;;;10.88;10.27;;;;;;;-143.83;100.00;62900.06;5084032;28;20020;-67
2022/10/31 05:05:16;;;;;;;10.70;10.18;;;;;;;-143.83;100.00;62900.06;5081762;28;20020;-67
2022/10/31 05:07:43;;;;;;;10.85;10.25;;;;;;;-143.83;100.00;62900.06;5083394;28;20035;-67
2022/10/31 05:10:11;;;;;;;11.05;10.45;;;;;;;-143.83;100.00;62900.06;5080342;28;20027;-68
2022/10/31 05:12:37;;;;;;;10.93;10.32;;;;;;;-143.83;100.00;62900.06;5080615;28;20036;-67
2022/10/31 05:15:04;;;;;;;10.60;10.10;;;;;;;-143.83;100.00;62900.06;5083861;28;20027;-67
2022/10/31 05:17:31;;;;;;;10.35;9.85;;;;;;;-143.83;100.00;62900.06;5102169;28;20689;-67
2022/10/31 05:19:56;;;;;;;10.40;9.90;;;;;;;-143.83;100.00;62900.06;5082842;28;20426;-67
2022/10/31 05:22:22;;;;;;;11.50;10.90;;;;;;;-143.83;100.00;62900.06;5085530;28;20115;-67
2022/10/31 05:24:47;;;;;;;10.48;9.98;;;;;;;-143.83;100.00;62900.06;5084646;28;20502;-66
2022/10/31 05:27:13;;;;;;;11.00;10.40;;;;;;;-143.83;100.00;62900.06;5073748;28;20510;-67
2022/10/31 05:29:38;;;;;;;10.82;10.27;;;;;;;-143.83;100.00;62900.06;5083687;28;20425;-66
2022/10/31 05:32:04;;;;;;;10.75;10.25;;;;;;;-143.83;100.00;62900.06;5080634;28;20024;-67
2022/10/31 05:34:29;;;;;;;10.52;10.02;;;;;;;-143.83;100.00;62900.06;5080912;28;20032;-67
2022/10/31 05:36:54;;;;;;;10.63;10.13;;;;;;;-143.83;100.00;62900.06;5080342;28;20494;-67
2022/10/31 05:39:20;;;;;;;10.98;10.40;;;;;;;-143.83;100.00;62900.06;5083217;28;20030;-67
2022/10/31 05:41:45;;;;;;;9.60;9.20;;;;;;;-143.83;100.00;62900.06;5082764;28;20032;-67
2022/10/31 05:44:11;;;;;;;11.30;10.70;;;;;;;-143.83;100.00;62900.06;5078899;28;20027;-67
2022/10/31 05:46:36;;;;;;;10.60;10.10;;;;;;;-143.83;100.00;62900.06;5091214;28;20386;-67
2022/10/31 05:49:02;;;;;;;10.93;10.43;;;;;;;-143.83;100.00;62900.06;5087844;28;20336;-66
2022/10/31 05:51:27;;;;;;;10.40;9.90;;;;;;;-143.83;100.00;62900.06;5085418;28;20506;-66
2022/10/31 05:53:53;;;;;;;10.43;9.93;;;;;;;-143.83;100.00;62900.06;5077130;28;20537;-66
2022/10/31 05:56:18;;;;;;;10.40;9.90;;;;;;;-143.83;100.00;62900.06;5079902;28;20027;-67
2022/10/31 05:58:43;;;;;;;10.90;10.40;;;;;;;-143.83;100.00;62900.06;5087313;28;20042;-66
2022/10/31 06:01:09;;;;;;;10.75;10.25;;;;;;;-143.83;100.00;62900.06;5080139;28;20122;-61
2022/10/31 06:03:34;;;;;;;11.18;10.63;;;;;;;-143.83;100.00;62900.06;5082483;28;20097;-61
2022/10/31 06:06:00;;;;;;;10.73;10.23;;;;;;;-143.83;100.00;62900.06;5085109;28;20035;-61
2022/10/31 06:08:27;;;;;;;11.43;10.82;;;;;;;-143.83;100.00;62900.06;5083663;28;20610;-61
2022/10/31 06:10:53;;;;;;;11.70;11.10;;;;;;;-143.83;100.00;62900.06;5086576;28;20096;-60
2022/10/31 06:13:19;;;;;;;11.32;10.73;;;;;;;-143.83;100.00;62900.06;5086503;28;20023;-61
2022/10/31 06:15:44;;;;;;;11.40;10.80;;;;;;;-143.83;100.00;62900.06;5086492;28;20039;-60
2022/10/31 06:18:10;;;;;;;11.13;10.57;;;;;;;-143.83;100.00;62900.06;5085025;28;20490;-61
2022/10/31 06:20:35;;;;;;;10.93;10.43;;;;;;;-143.83;100.00;62900.06;5088132;28;20032;-61
2022/10/31 06:23:01;;;;;;;11.30;10.70;;;;;;;-143.83;100.00;62900.06;5087757;28;20118;-61
2022/10/31 06:25:27;;;;;;;10.63;10.13;;;;;;;-143.83;100.00;62900.06;5081863;28;20036;-63
2022/10/31 06:27:56;;;;;;;10.90;10.40;;;;;;;-143.83;100.00;62900.06;5088248;28;20028;-64
2022/10/31 06:30:22;;;;;;;11.38;10.77;;;;;;;-143.83;100.00;62900.06;5080987;28;20051;-66
2022/10/31 06:32:47;;;;;;;11.30;10.70;;;;;;;-143.83;100.00;62900.06;5078164;28;20391;-66
2022/10/31 06:35:13;;;;;;;10.55;10.05;;;;;;;-143.83;100.00;62900.06;5082614;28;20060;-66
2022/10/31 06:37:39;;;;;;;11.30;10.70;;;;;;;-143.83;100.00;62900.06;5081819;28;20157;-66
2022/10/31 06:40:05;;;;;;;10.77;10.27;;;;;;;-143.83;100.00;62900.06;5083443;28;20032;-66
2022/10/31 06:42:31;;;;;;;10.68;10.18;;;;;;;-143.83;100.00;62900.06;5082238;28;20031;-66
2022/10/31 06:44:56;;;;;;;10.88;10.38;;;;;;;-143.83;100.00;62900.06;5087594;28;20028;-67
2022/10/31 06:47:24;;;;;;;10.82;10.32;;;;;;;-143.83;100.00;62900.06;5081076;28;20084;-66
2022/10/31 06:49:49;;;;;;;10.05;9.65;;;;;;;-143.83;100.00;62900.06;5080786;28;20028;-66
2022/10/31 06:52:15;;;;;;;10.55;10.05;;;;;;;-143.83;100.00;62900.06;5080890;28;20051;-66
2022/10/31 06:54:41;;;;;;;11.20;10.70;;;;;;;-143.83;100.00;62900.06;5071949;28;20052;-66
2022/10/31 06:57:07;;;;;;;10.95;10.45;;;;;;;-143.83;100.00;62900.06;5084535;28;20063;-65
2022/10/31 06:59:32;;;;;;;10.85;10.35;;;;;;;-143.83;100.00;62900.06;5079073;28;20024;-66
2022/10/31 07:01:58;;;;;;;10.68;10.18;;;;;;;-143.83;100.00;62900.06;5077196;28;20032;-66
2022/10/31 07:04:30;;;;;;;10.80;10.30;;;;;;;-143.83;100.00;62900.06;5083679;28;20031;-66
2022/10/31 07:06:56;;;;;;;10.82;10.32;;;;;;;-143.83;100.00;62900.06;5061178;28;20086;-66
2022/10/31 07:09:21;;;;;;;10.60;10.10;;;;;;;-143.83;100.00;62900.06;5083694;28;20028;-66
2022/10/31 07:11:47;;;;;;;11.00;10.50;;;;;;;-143.83;100.00;62900.06;5070497;28;20244;-65
2022/10/31 07:14:12;;;;;;;10.48;9.98;;;;;;;-143.83;100.00;62900.06;5085258;28;20024;-65
2022/10/31 07:16:38;;;;;;;10.23;9.82;;;;;;;-143.83;100.00;62900.06;5085130;28;20024;-65
2022/10/31 07:19:03;;;;;;;10.60;10.10;;;;;;;-143.83;100.00;62900.06;5082497;28;20028;-66
2022/10/31 07:21:34;;;;;;;10.23;9.82;;;;;;;-143.83;100.00;62900.06;5075081;28;20032;-67
2022/10/31 07:23:59;;;;;;;10.60;10.10;;;;;;;-143.83;100.00;62900.06;5086983;28;20024;-63
2022/10/31 07:26:26;;;;;;;10.90;10.40;;;;;;;-143.83;100.00;62900.06;5084624;28;20434;-74
2022/10/31 07:28:51;;;;;;;10.75;10.25;;;;;;;-143.83;100.00;62900.06;5074867;28;20457;-70
2022/10/31 07:31:16;;;;;;;10.82;10.32;;;;;;;-143.83;100.00;62900.06;5083710;28;20024;-71
2022/10/31 07:33:42;;;;;;;11.02;10.52;;;;;;;-143.83;100.00;62900.06;5077843;28;20115;-70
2022/10/31 07:36:07;;;;;;;11.10;10.60;;;;;;;-143.83;100.00;62900.06;5081024;28;20029;-70
2022/10/31 07:38:33;;;;;;;11.20;10.70;;;;;;;-143.83;100.00;62900.06;5083631;28;20045;-69
2022/10/31 07:40:58;;;;;;;10.75;10.25;;;;;;;-143.83;100.00;62900.06;5089068;28;20021;-70
2022/10/31 07:43:24;;;;;;;10.50;10.00;;;;;;;-143.83;100.00;62900.06;5082081;28;20040;-68
2022/10/31 07:45:51;;;;;;;10.70;10.20;;;;;;;-143.83;100.00;62900.06;5078532;28;20036;-71
2022/10/31 07:48:17;;;;;;;10.50;10.00;;;;;;;-143.83;100.00;62900.06;5080964;28;20398;-70
2022/10/31 07:50:42;;;;;;;10.70;10.20;;;;;;;-143.83;100.00;62900.06;5080044;28;20033;-68
2022/10/31 07:53:10;;;;;;;10.63;10.13;;;;;;;-143.83;100.00;62900.06;5081699;28;20491;-70
2022/10/31 07:55:36;;;;;;;10.48;9.98;;;;;;;-143.83;100.00;62900.06;5083443;28;20025;-70
2022/10/31 07:58:13;;;;;;;10.80;10.30;;;;;;;-143.83;100.00;62900.06;5087104;28;20465;-70
2022/10/31 08:00:41;;;;;;;11.20;10.70;;;;;;;-143.83;100.00;62900.06;5087860;28;20025;-70
2022/10/31 08:03:12;;;;;;;10.70;10.20;;;;;;;-143.83;100.00;62900.06;5082554;28;20058;-69
2022/10/31 08:05:37;;;;;;;10.80;10.30;;;;;;;-143.83;100.00;62900.06;5089780;28;20456;-70
2022/10/31 08:08:04;;;;;;;10.70;10.20;;;;;;;-143.83;100.00;62900.06;5085028;28;20032;-69
2022/10/31 08:10:30;;;;;;;10.20;9.80;;;;;;;-143.83;100.00;62900.06;5102771;28;20077;-70
2022/10/31 08:13:11;;;;;;;10.90;10.40;;;;;;;-143.83;100.00;62900.06;5087262;28;20107;-70
2022/10/31 08:15:39;;;;;;;11.15;10.65;;;;;;;-143.83;100.00;62900.06;5088693;28;20012;-69
2022/10/31 08:18:15;;;;;;;10.30;9.90;;;;;;;-143.83;100.00;62900.06;5087612;28;20031;-68
2022/10/31 08:20:42;;;;;;;10.70;10.20;;;;;;;-143.83;100.00;62900.06;5082372;28;20024;-71
2022/10/31 08:23:10;;;;;;;10.50;10.00;;;;;;;-143.83;100.00;62900.06;5085119;28;20023;-70
2022/10/31 08:25:37;;;;;;;10.70;10.20;;;;;;;-143.83;100.00;62900.06;5088889;28;20020;-71
2022/10/31 08:28:03;;;;;;;10.25;9.82;;;;;;;-143.83;100.00;62900.06;5085101;28;20077;-69
2022/10/31 08:30:31;;;;;;;10.70;10.20;;;;;;;-143.83;100.00;62900.06;5087399;28;20053;-69
2022/10/31 08:33:05;;;;;;;11.18;10.68;;;;;;;-143.83;100.00;62900.06;5084297;28;20147;-70
2022/10/31 08:35:33;;;;;;;11.15;10.65;;;;;;;-143.83;100.00;62900.06;5085843;28;20024;-70
2022/10/31 08:38:01;;;;;;;11.10;10.60;;;;;;;-143.83;100.00;62900.06;5083855;28;20041;-69
2022/10/31 08:40:28;;;;;;;10.45;9.95;;;;;;;-143.83;100.00;62900.06;5085297;28;20052;-67
2022/10/31 08:43:14;;;;;;;10.85;10.35;;;;;;;-143.83;100.00;62900.06;5087041;28;20127;-68
2022/10/31 08:45:40;;;;;;;10.70;10.20;;;;;;;-143.83;100.00;62900.06;5087210;28;20086;-69
2022/10/31 08:48:11;;;;;;;10.55;10.05;;;;;;;-143.83;100.00;62900.06;5088261;28;20024;-69
2022/10/31 08:50:36;;;;;;;10.57;10.07;;;;;;;-143.83;100.00;62900.06;5085685;28;20032;-71
2022/10/31 08:53:03;;;;;;;10.23;9.82;;;;;;;-143.83;100.00;62900.06;5079868;28;20052;-69
2022/10/31 08:55:29;;;;;;;10.70;10.20;;;;;;;-143.83;100.00;62900.06;5083512;28;20069;-69
2022/10/31 08:57:58;;;;;;;10.65;10.15;;;;;;;-143.83;100.00;62900.06;5079906;28;20422;-68
2022/10/31 09:00:24;;;;;;;10.45;9.98;;;;;;;-143.83;100.00;62900.06;5089715;28;20025;-68
2022/10/31 09:03:01;;;;;;;11.13;10.63;;;;;;;-143.83;100.00;62900.06;5083061;28;20555;-71
2022/10/31 09:05:27;;;;;;;10.30;9.90;;;;;;;-143.83;100.00;62900.06;5085307;28;20044;-70
2022/10/31 09:08:00;;;;;;;10.70;10.20;;;;;;;-143.83;100.00;62900.06;5081057;28;20020;-69
2022/10/31 09:10:27;;;;;;;10.50;10.00;;;;;;;-143.83;100.00;62900.06;5081967;28;20028;-70
2022/10/31 09:12:58;;;;;;;10.98;10.48;;;;;;;-143.83;100.00;62900.06;5084408;28;20032;-71
2022/10/31 09:15:24;;;;;;;10.15;9.75;;;;;;;-143.83;100.00;62900.06;5079370;28;20403;-71
2022/10/31 09:17:50;;;;;;;10.63;10.13;;;;;;;-143.83;100.00;62900.06;5106608;28;20028;-70
2022/10/31 09:20:15;;;;;;;10.15;9.75;;;;;;;-143.83;100.00;62900.06;5084797;28;20031;-69
2022/10/31 09:22:42;;;;;;;10.48;9.98;;;;;;;-143.83;100.00;62900.06;5077869;28;20031;-70
2022/10/31 09:25:08;;;;;;;11.00;10.50;;;;;;;-143.83;100.00;62900.06;5080728;28;20105;-70
2022/10/31 09:27:33;;;;;;;11.00;10.50;;;;;;;-143.83;100.00;62900.06;5081416;28;20491;-71
2022/10/31 09:29:59;;;;;;;11.75;11.25;;;;;;;-143.83;100.00;62900.06;5078407;28;20459;-70
2022/10/31 09:32:24;;;;;;;11.25;10.75;;;;;;;-143.83;100.00;62900.06;5080588;28;20157;-68
2022/10/31 09:34:49;;;;;;;11.85;11.27;;;;;;;-143.83;100.00;62900.06;5076266;28;20028;-70
2022/10/31 09:37:15;;;;;;;11.45;10.95;;;;;;;-143.83;100.00;62900.06;5082036;28;20021;-69
2022/10/31 09:39:41;;;;;;;11.55;11.05;;;;;;;-143.83;100.00;62900.06;5084472;28;20030;-71
2022/10/31 09:42:25;;;;;;;11.50;11.00;;;;;;;-143.83;100.00;62900.06;5079832;28;20024;-66
2022/10/31 09:44:56;;;;;;;11.43;10.93;;;;;;;-143.83;100.00;62900.06;5087955;28;20486;-71
2022/10/31 09:47:47;;;;;;;11.95;11.35;;;;;;;-143.83;100.00;62900.06;5084496;28;20111;-70
2022/10/31 09:50:27;;;;;;;11.23;10.73;;;;;;;-143.83;100.00;62900.06;5077745;28;20107;-69
2022/10/31 09:53:04;;;;;;;11.15;10.65;;;;;;;-143.83;100.00;62900.06;5082666;28;20040;-71
2022/10/31 09:55:42;;;;;;;10.98;10.48;;;;;;;-143.83;100.00;62900.06;5081640;28;20085;-69
2022/10/31 09:58:19;;;;;;;10.95;10.45;;;;;;;-143.83;100.00;62900.06;5082281;28;20618;-70
2022/10/31 10:00:47;;;;;;;11.30;10.80;;;;;;;-143.83;100.00;62900.06;5082377;28;20036;-69
2022/10/31 10:03:18;;;;;;;11.93;11.32;;;;;;;-143.83;100.00;62900.06;5078886;28;20024;-67
2022/10/31 10:05:52;;;;;;;11.30;10.80;;;;;;;-143.83;100.00;62900.06;5084383;28;20067;-70
2022/10/31 10:08:23;;;;;;;10.80;10.30;;;;;;;-143.83;100.00;62900.06;5087228;28;20056;-69
2022/10/31 10:11:08;;;;;;;10.85;10.35;;;;;;;-143.83;100.00;62900.06;5086407;28;20502;-70
2022/10/31 10:13:43;;;;;;;10.45;9.95;;;;;;;-143.83;100.00;62900.06;5080154;28;20027;-69
2022/10/31 10:16:47;;;;;;;11.30;10.77;;;;;;;-143.83;100.00;62900.06;5081663;28;20039;-70
2022/10/31 10:19:21;;;;;;;11.02;10.52;;;;;;;-143.83;100.00;62900.06;5079157;28;20036;-69
2022/10/31 10:22:06;;;;;;;10.57;10.07;;;;;;;-143.83;100.00;62900.06;5084380;28;20024;-72
2022/10/31 10:25:07;;;;;;;11.00;10.50;;;;;;;-143.83;100.00;62900.06;5079869;28;20101;-71
2022/10/31 10:27:57;;;;;;;11.07;10.57;;;;;;;-143.83;100.00;62900.06;5082544;28;20040;-71
2022/10/31 10:30:34;;;;;;;10.65;10.15;;;;;;;-143.83;100.00;62900.06;5083384;28;20065;-71
2022/10/31 10:33:09;;;;;;;11.32;10.77;;;;;;;-143.83;100.00;62900.06;5077025;28;20024;-71
2022/10/31 10:35:42;;;;;;;11.38;10.85;;;;;;;-143.83;100.00;62900.06;5084497;28;20020;-71
2022/10/31 10:38:11;;;;;;;10.75;10.25;;;;;;;-143.83;100.00;62900.06;5084081;28;20364;-70
2022/10/31 10:40:37;;;;;;;10.93;10.43;;;;;;;-143.83;100.00;62900.06;5080462;28;20028;-69
2022/10/31 10:43:25;;;;;;;10.43;9.93;;;;;;;-143.83;100.00;62900.06;5080215;28;20063;-71
2022/10/31 10:49:22;;;;;;;11.07;10.57;;;;;;;-143.83;100.00;62900.06;5085104;28;20092;-69
2022/10/31 10:52:19;;;;;;;11.25;10.75;;;;;;;-143.83;100.00;62900.06;5082516;28;20455;-69
2022/10/31 10:54:57;;;;;;;11.85;11.25;;;;;;;-143.83;100.00;62900.06;5074088;28;20032;-70
2022/10/31 10:57:55;;;;;;;11.00;10.50;;;;;;;-143.83;100.00;62900.06;5083217;28;20028;-68
2022/10/31 11:00:40;;;;;;;11.65;11.05;;;;;;;-143.83;100.00;62900.06;5073952;28;20023;-70
2022/10/31 11:03:06;;;;;;;13.07;12.40;;;;;;;-143.83;100.00;62900.06;5076836;28;20043;-69
2022/10/31 11:05:40;;;;;;;10.85;10.35;;;;;;;-143.83;100.00;62900.06;5074994;28;20032;-69
2022/10/31 11:08:07;;;;;;;12.13;11.52;;;;;;;-143.83;100.00;62900.06;5078249;28;20036;-69
2022/10/31 11:10:33;;;;;;;12.23;11.63;;;;;;;-143.83;100.00;62900.06;5076460;28;20500;-68
2022/10/31 11:13:15;;;;;;;11.25;10.75;;;;;;;-143.83;100.00;62900.06;5076606;28;20764;-68